sensor_id;sensor_type;location;lat;lon;timestamp;temperature;humidity
55560;DHT22;41414;53.250;6.514;2022-11-20T08:00:06;2.20;99.90
55560;DHT22;41414;53.250;6.514;2022-11-20T08:02:38;1.30;99.90
55560;DHT22;41414;53.250;6.514;2022-11-20T08:05:05;1.20;99.90
55560;DHT22;41414;53.250;6.514;2022-11-20T08:07:36;1.10;99.90
55560;DHT22;41414;53.250;6.514;2022-11-20T08:10:02;1.10;99.90
55560;DHT22;41414;53.250;6.514;2022-11-20T08:12:28;1.10;99.90
55560;DHT22;41414;53.250;6.514;2022-11-20T08:15:13;1.10;99.90
55560;DHT22;41414;53.250;6.514;2022-11-20T08:17:38;1.20;99.90
55560;DHT22;41414;53.250;6.514;2022-11-20T08:20:04;1.20;99.90
55560;DHT22;41414;53.250;6.514;2022-11-20T08:22:30;1.30;99.90
55560;DHT22;41414;53.250;6.514;2022-11-20T08:24:56;1.30;99.90
55560;DHT22;41414;53.250;6.514;2022-11-20T08:27:23;1.30;99.90
55560;DHT22;41414;53.250;6.514;2022-11-20T08:29:49;1.30;99.90
55560;DHT22;41414;53.250;6.514;2022-11-20T08:32:14;1.40;99.90
55560;DHT22;41414;53.250;6.514;2022-11-20T08:34:42;1.40;99.90
55560;DHT22;41414;53.250;6.514;2022-11-20T08:37:08;1.40;99.90
55560;DHT22;41414;53.250;6.514;2022-11-20T08:39:34;1.40;99.90
55560;DHT22;41414;53.250;6.514;2022-11-20T08:41:59;1.40;99.90
55560;DHT22;41414;53.250;6.514;2022-11-20T08:44:25;1.30;99.90
55560;DHT22;41414;53.250;6.514;2022-11-20T08:46:51;1.30;99.90
55560;DHT22;41414;53.250;6.514;2022-11-20T08:49:17;1.30;99.90
55560;DHT22;41414;53.250;6.514;2022-11-20T08:51:43;1.40;99.90
55560;DHT22;41414;53.250;6.514;2022-11-20T08:54:09;1.40;99.90
55560;DHT22;41414;53.250;6.514;2022-11-20T08:56:35;1.40;99.90
55560;DHT22;41414;53.250;6.514;2022-11-20T08:59:01;1.50;99.90
55560;DHT22;41414;53.250;6.514;2022-11-20T09:01:28;1.50;99.90
55560;DHT22;41414;53.250;6.514;2022-11-20T09:03:56;1.50;99.90
55560;DHT22;41414;53.250;6.514;2022-11-20T09:06:22;1.60;99.90
55560;DHT22;41414;53.250;6.514;2022-11-20T09:08:52;1.60;99.90
55560;DHT22;41414;53.250;6.514;2022-11-20T09:11:18;1.60;99.90
55560;DHT22;41414;53.250;6.514;2022-11-20T09:13:44;1.60;99.90
55560;DHT22;41414;53.250;6.514;2022-11-20T09:16:10;1.60;99.90
55560;DHT22;41414;53.250;6.514;2022-11-20T09:18:36;1.60;99.90
55560;DHT22;41414;53.250;6.514;2022-11-20T09:21:05;1.60;99.90
55560;DHT22;41414;53.250;6.514;2022-11-20T09:23:33;1.60;99.90
55560;DHT22;41414;53.250;6.514;2022-11-20T09:26:04;1.50;99.90
55560;DHT22;41414;53.250;6.514;2022-11-20T09:28:31;1.50;99.90
55560;DHT22;41414;53.250;6.514;2022-11-20T09:30:57;1.50;99.90
55560;DHT22;41414;53.250;6.514;2022-11-20T09:33:23;1.50;99.90
55560;DHT22;41414;53.250;6.514;2022-11-20T09:35:49;1.50;99.90
55560;DHT22;41414;53.250;6.514;2022-11-20T09:38:15;1.50;99.90
55560;DHT22;41414;53.250;6.514;2022-11-20T09:40:49;1.60;99.90
55560;DHT22;41414;53.250;6.514;2022-11-20T09:43:29;1.60;99.90
55560;DHT22;41414;53.250;6.514;2022-11-20T09:46:03;1.70;99.90
55560;DHT22;41414;53.250;6.514;2022-11-20T09:48:58;1.70;99.90
55560;DHT22;41414;53.250;6.514;2022-11-20T09:51:57;1.70;99.90
55560;DHT22;41414;53.250;6.514;2022-11-20T09:54:39;1.70;99.90
55560;DHT22;41414;53.250;6.514;2022-11-20T09:57:12;1.80;99.90
55560;DHT22;41414;53.250;6.514;2022-11-20T09:59:43;1.90;99.90
55560;DHT22;41414;53.250;6.514;2022-11-20T10:04:57;2.00;99.90
55560;DHT22;41414;53.250;6.514;2022-11-20T10:10:16;2.10;99.90
55560;DHT22;41414;53.250;6.514;2022-11-20T10:12:51;2.10;99.90
55560;DHT22;41414;53.250;6.514;2022-11-20T10:15:34;2.10;99.90
55560;DHT22;41414;53.250;6.514;2022-11-20T10:18:17;2.10;99.90
55560;DHT22;41414;53.250;6.514;2022-11-20T10:21:07;2.10;99.90
55560;DHT22;41414;53.250;6.514;2022-11-20T10:29:15;2.30;99.90
55560;DHT22;41414;53.250;6.514;2022-11-20T10:31:45;2.40;99.90
55560;DHT22;41414;53.250;6.514;2022-11-20T10:36:52;2.50;99.90
55560;DHT22;41414;53.250;6.514;2022-11-20T10:39:30;2.60;99.90
55560;DHT22;41414;53.250;6.514;2022-11-20T10:41:59;2.70;99.90
55560;DHT22;41414;53.250;6.514;2022-11-20T10:44:31;2.90;99.90
55560;DHT22;41414;53.250;6.514;2022-11-20T10:47:17;3.00;99.90
55560;DHT22;41414;53.250;6.514;2022-11-20T10:49:46;3.20;99.90
55560;DHT22;41414;53.250;6.514;2022-11-20T10:52:33;3.30;99.90
55560;DHT22;41414;53.250;6.514;2022-11-20T10:55:16;3.40;99.90
55560;DHT22;41414;53.250;6.514;2022-11-20T11:00:32;3.60;99.90
55560;DHT22;41414;53.250;6.514;2022-11-20T11:02:58;3.60;99.90
55560;DHT22;41414;53.250;6.514;2022-11-20T11:05:40;3.70;99.90
55560;DHT22;41414;53.250;6.514;2022-11-20T11:08:14;3.70;99.90
55560;DHT22;41414;53.250;6.514;2022-11-20T11:13:07;3.70;99.90
55560;DHT22;41414;53.250;6.514;2022-11-20T11:15:40;3.70;99.90
55560;DHT22;41414;53.250;6.514;2022-11-20T11:18:10;3.60;99.90
55560;DHT22;41414;53.250;6.514;2022-11-20T11:20:37;3.60;99.90
55560;DHT22;41414;53.250;6.514;2022-11-20T11:23:03;3.50;99.90
55560;DHT22;41414;53.250;6.514;2022-11-20T11:25:32;3.40;99.90
55560;DHT22;41414;53.250;6.514;2022-11-20T11:28:02;3.40;99.90
55560;DHT22;41414;53.250;6.514;2022-11-20T11:30:29;3.30;99.90
55560;DHT22;41414;53.250;6.514;2022-11-20T11:33:04;3.20;99.90
55560;DHT22;41414;53.250;6.514;2022-11-20T11:35:31;3.10;99.90
55560;DHT22;41414;53.250;6.514;2022-11-20T11:38:06;3.10;99.90
55560;DHT22;41414;53.250;6.514;2022-11-20T11:40:35;3.00;99.90
55560;DHT22;41414;53.250;6.514;2022-11-20T11:43:06;3.00;99.90
55560;DHT22;41414;53.250;6.514;2022-11-20T11:45:54;2.90;99.90
55560;DHT22;41414;53.250;6.514;2022-11-20T11:48:21;2.80;99.90
55560;DHT22;41414;53.250;6.514;2022-11-20T11:50:50;2.80;99.90
55560;DHT22;41414;53.250;6.514;2022-11-20T11:53:19;2.80;99.90
55560;DHT22;41414;53.250;6.514;2022-11-20T11:58:20;2.80;99.90
55560;DHT22;41414;53.250;6.514;2022-11-20T12:06:04;2.90;99.90
55560;DHT22;41414;53.250;6.514;2022-11-20T12:08:32;3.10;99.90
55560;DHT22;41414;53.250;6.514;2022-11-20T12:11:20;3.30;99.90
55560;DHT22;41414;53.250;6.514;2022-11-20T12:14:02;3.60;99.90
55560;DHT22;41414;53.250;6.514;2022-11-20T12:16:34;3.80;99.90
55560;DHT22;41414;53.250;6.514;2022-11-20T12:19:01;4.20;99.90
55560;DHT22;41414;53.250;6.514;2022-11-20T12:21:43;4.50;99.90
55560;DHT22;41414;53.250;6.514;2022-11-20T12:32:48;5.70;99.90
55560;DHT22;41414;53.250;6.514;2022-11-20T12:35:42;6.50;99.90
55560;DHT22;41414;53.250;6.514;2022-11-20T12:38:31;7.30;99.90
55560;DHT22;41414;53.250;6.514;2022-11-20T12:43:30;7.30;96.50
55560;DHT22;41414;53.250;6.514;2022-11-20T12:46:30;6.80;96.70
55560;DHT22;41414;53.250;6.514;2022-11-20T12:51:45;5.90;95.60
55560;DHT22;41414;53.250;6.514;2022-11-20T12:54:31;5.60;95.90
55560;DHT22;41414;53.250;6.514;2022-11-20T12:57:16;5.30;95.50
55560;DHT22;41414;53.250;6.514;2022-11-20T12:59:59;5.00;95.90
55560;DHT22;41414;53.250;6.514;2022-11-20T13:02:41;4.80;96.10
55560;DHT22;41414;53.250;6.514;2022-11-20T13:05:22;4.60;96.40
55560;DHT22;41414;53.250;6.514;2022-11-20T13:07:52;4.40;96.40
55560;DHT22;41414;53.250;6.514;2022-11-20T13:10:43;4.30;97.10
55560;DHT22;41414;53.250;6.514;2022-11-20T13:15:55;4.20;96.80
55560;DHT22;41414;53.250;6.514;2022-11-20T13:18:21;4.20;96.90
55560;DHT22;41414;53.250;6.514;2022-11-20T13:20:47;4.10;96.70
55560;DHT22;41414;53.250;6.514;2022-11-20T13:23:25;4.10;97.30
55560;DHT22;41414;53.250;6.514;2022-11-20T13:26:04;4.20;97.90
55560;DHT22;41414;53.250;6.514;2022-11-20T13:28:30;4.20;98.10
55560;DHT22;41414;53.250;6.514;2022-11-20T13:30:57;4.20;98.60
55560;DHT22;41414;53.250;6.514;2022-11-20T13:33:33;4.30;98.70
55560;DHT22;41414;53.250;6.514;2022-11-20T13:36:05;4.40;98.60
55560;DHT22;41414;53.250;6.514;2022-11-20T13:38:42;4.40;98.40
55560;DHT22;41414;53.250;6.514;2022-11-20T13:41:09;4.50;99.00
55560;DHT22;41414;53.250;6.514;2022-11-20T13:44:05;4.60;98.60
55560;DHT22;41414;53.250;6.514;2022-11-20T13:46:39;4.60;97.90
55560;DHT22;41414;53.250;6.514;2022-11-20T13:49:09;4.50;97.80
55560;DHT22;41414;53.250;6.514;2022-11-20T13:51:38;4.40;98.00
55560;DHT22;41414;53.250;6.514;2022-11-20T13:59:28;4.20;99.20
55560;DHT22;41414;53.250;6.514;2022-11-20T14:01:56;4.10;99.30
55560;DHT22;41414;53.250;6.514;2022-11-20T14:04:33;4.10;99.70
55560;DHT22;41414;53.250;6.514;2022-11-20T14:07:01;4.00;99.90
55560;DHT22;41414;53.250;6.514;2022-11-20T14:09:32;4.00;99.90
55560;DHT22;41414;53.250;6.514;2022-11-20T14:12:00;4.00;99.90
55560;DHT22;41414;53.250;6.514;2022-11-20T14:14:28;4.00;99.90
55560;DHT22;41414;53.250;6.514;2022-11-20T14:17:15;4.00;99.90
55560;DHT22;41414;53.250;6.514;2022-11-20T14:19:44;4.00;99.90
55560;DHT22;41414;53.250;6.514;2022-11-20T14:22:21;4.00;99.90
55560;DHT22;41414;53.250;6.514;2022-11-20T14:24:49;4.00;99.90
55560;DHT22;41414;53.250;6.514;2022-11-20T14:27:25;3.90;99.90
55560;DHT22;41414;53.250;6.514;2022-11-20T14:29:51;3.90;99.90
55560;DHT22;41414;53.250;6.514;2022-11-20T14:32:19;3.80;99.90
55560;DHT22;41414;53.250;6.514;2022-11-20T14:34:48;3.80;99.90
55560;DHT22;41414;53.250;6.514;2022-11-20T14:37:21;3.70;99.90
55560;DHT22;41414;53.250;6.514;2022-11-20T14:39:52;3.60;99.90
55560;DHT22;41414;53.250;6.514;2022-11-20T14:42:22;3.60;99.90
55560;DHT22;41414;53.250;6.514;2022-11-20T14:44:49;3.60;99.90
55560;DHT22;41414;53.250;6.514;2022-11-20T14:47:20;3.60;99.90
55560;DHT22;41414;53.250;6.514;2022-11-20T14:49:47;3.50;99.90
55560;DHT22;41414;53.250;6.514;2022-11-20T14:52:23;3.50;99.90
55560;DHT22;41414;53.250;6.514;2022-11-20T14:54:52;3.40;99.90
55560;DHT22;41414;53.250;6.514;2022-11-20T14:57:28;3.40;99.90
55560;DHT22;41414;53.250;6.514;2022-11-20T15:02:42;3.20;99.90
55560;DHT22;41414;53.250;6.514;2022-11-20T15:05:08;3.20;99.90
55560;DHT22;41414;53.250;6.514;2022-11-20T15:07:37;3.20;99.90
55560;DHT22;41414;53.250;6.514;2022-11-20T15:10:09;3.10;99.90
55560;DHT22;41414;53.250;6.514;2022-11-20T15:12:46;3.10;99.90
55560;DHT22;41414;53.250;6.514;2022-11-20T15:15:19;3.10;99.90
55560;DHT22;41414;53.250;6.514;2022-11-20T15:17:46;3.00;99.90
55560;DHT22;41414;53.250;6.514;2022-11-20T15:20:14;3.00;99.90
55560;DHT22;41414;53.250;6.514;2022-11-20T15:22:41;2.90;99.90
55560;DHT22;41414;53.250;6.514;2022-11-20T15:25:14;2.80;99.90
55560;DHT22;41414;53.250;6.514;2022-11-20T15:27:41;2.80;99.90
55560;DHT22;41414;53.250;6.514;2022-11-20T15:30:15;2.70;99.90
55560;DHT22;41414;53.250;6.514;2022-11-20T15:32:43;2.70;99.90
55560;DHT22;41414;53.250;6.514;2022-11-20T15:35:10;2.70;99.90
55560;DHT22;41414;53.250;6.514;2022-11-20T15:37:37;2.70;99.90
55560;DHT22;41414;53.250;6.514;2022-11-20T15:40:04;2.70;99.90
55560;DHT22;41414;53.250;6.514;2022-11-20T15:42:30;2.60;99.90
55560;DHT22;41414;53.250;6.514;2022-11-20T15:44:56;2.60;99.90
55560;DHT22;41414;53.250;6.514;2022-11-20T15:47:27;2.60;99.90
55560;DHT22;41414;53.250;6.514;2022-11-20T15:49:53;2.50;99.90
55560;DHT22;41414;53.250;6.514;2022-11-20T15:52:19;2.50;99.90
55560;DHT22;41414;53.250;6.514;2022-11-20T15:54:45;2.50;99.90
55560;DHT22;41414;53.250;6.514;2022-11-20T15:57:11;2.60;99.90
55560;DHT22;41414;53.250;6.514;2022-11-20T15:59:39;2.60;99.90
55560;DHT22;41414;53.250;6.514;2022-11-20T16:02:11;2.60;99.90
55560;DHT22;41414;53.250;6.514;2022-11-20T16:04:38;2.50;99.90
55560;DHT22;41414;53.250;6.514;2022-11-20T16:07:04;2.50;99.90
55560;DHT22;41414;53.250;6.514;2022-11-20T16:09:30;2.50;99.90
55560;DHT22;41414;53.250;6.514;2022-11-20T16:11:56;2.50;99.90
55560;DHT22;41414;53.250;6.514;2022-11-20T16:14:25;2.50;99.90
55560;DHT22;41414;53.250;6.514;2022-11-20T16:17:11;2.50;99.90
55560;DHT22;41414;53.250;6.514;2022-11-20T16:19:37;2.50;99.90
55560;DHT22;41414;53.250;6.514;2022-11-20T16:22:03;2.40;99.90
55560;DHT22;41414;53.250;6.514;2022-11-20T16:24:29;2.40;99.90
55560;DHT22;41414;53.250;6.514;2022-11-20T16:26:56;2.40;99.90
55560;DHT22;41414;53.250;6.514;2022-11-20T16:29:22;2.40;99.90
55560;DHT22;41414;53.250;6.514;2022-11-20T16:31:48;2.30;99.90
55560;DHT22;41414;53.250;6.514;2022-11-20T16:34:16;2.30;99.90
55560;DHT22;41414;53.250;6.514;2022-11-20T16:36:43;2.30;99.90
55560;DHT22;41414;53.250;6.514;2022-11-20T16:39:10;2.30;99.90
55560;DHT22;41414;53.250;6.514;2022-11-20T16:41:36;2.30;99.90
55560;DHT22;41414;53.250;6.514;2022-11-20T16:44:07;2.30;99.90
55560;DHT22;41414;53.250;6.514;2022-11-20T16:46:33;2.30;99.90
55560;DHT22;41414;53.250;6.514;2022-11-20T16:49:03;2.30;99.90
55560;DHT22;41414;53.250;6.514;2022-11-20T16:51:31;2.30;99.90
55560;DHT22;41414;53.250;6.514;2022-11-20T16:54:02;2.30;99.90
55560;DHT22;41414;53.250;6.514;2022-11-20T16:56:28;2.30;99.90
55560;DHT22;41414;53.250;6.514;2022-11-20T16:58:56;2.30;99.90
55560;DHT22;41414;53.250;6.514;2022-11-20T17:01:23;2.30;99.90
55560;DHT22;41414;53.250;6.514;2022-11-20T17:03:57;2.30;99.90
55560;DHT22;41414;53.250;6.514;2022-11-20T17:06:26;2.30;99.90
55560;DHT22;41414;53.250;6.514;2022-11-20T17:08:53;2.30;99.90
55560;DHT22;41414;53.250;6.514;2022-11-20T17:11:19;2.20;99.90
55560;DHT22;41414;53.250;6.514;2022-11-20T17:13:46;2.30;99.90
55560;DHT22;41414;53.250;6.514;2022-11-20T17:16:16;2.20;99.90
55560;DHT22;41414;53.250;6.514;2022-11-20T17:18:43;2.20;99.90
55560;DHT22;41414;53.250;6.514;2022-11-20T17:21:10;2.20;99.90
55560;DHT22;41414;53.250;6.514;2022-11-20T17:23:38;2.20;99.90
55560;DHT22;41414;53.250;6.514;2022-11-20T17:26:07;2.10;99.90
55560;DHT22;41414;53.250;6.514;2022-11-20T17:28:34;2.10;99.90
55560;DHT22;41414;53.250;6.514;2022-11-20T17:31:02;2.10;99.90
55560;DHT22;41414;53.250;6.514;2022-11-20T17:33:29;2.10;99.90
55560;DHT22;41414;53.250;6.514;2022-11-20T17:35:55;2.10;99.90
55560;DHT22;41414;53.250;6.514;2022-11-20T17:38:21;2.10;99.90
55560;DHT22;41414;53.250;6.514;2022-11-20T17:40:47;2.10;99.90
55560;DHT22;41414;53.250;6.514;2022-11-20T17:43:13;2.10;99.90
55560;DHT22;41414;53.250;6.514;2022-11-20T17:45:39;2.10;99.90
55560;DHT22;41414;53.250;6.514;2022-11-20T17:48:05;2.10;99.90
55560;DHT22;41414;53.250;6.514;2022-11-20T17:50:31;2.10;99.90
55560;DHT22;41414;53.250;6.514;2022-11-20T17:52:56;2.10;99.90
55560;DHT22;41414;53.250;6.514;2022-11-20T17:55:22;2.10;99.90
55560;DHT22;41414;53.250;6.514;2022-11-20T17:57:48;2.10;99.90
55560;DHT22;41414;53.250;6.514;2022-11-20T18:00:22;2.10;99.90
55560;DHT22;41414;53.250;6.514;2022-11-20T18:02:49;2.10;99.90
55560;DHT22;41414;53.250;6.514;2022-11-20T18:05:15;2.10;99.90
55560;DHT22;41414;53.250;6.514;2022-11-20T18:07:41;2.10;99.90
55560;DHT22;41414;53.250;6.514;2022-11-20T18:10:07;2.10;99.90
55560;DHT22;41414;53.250;6.514;2022-11-20T18:12:33;2.10;99.90
55560;DHT22;41414;53.250;6.514;2022-11-20T18:14:59;2.10;99.90
55560;DHT22;41414;53.250;6.514;2022-11-20T18:17:26;2.10;99.90
55560;DHT22;41414;53.250;6.514;2022-11-20T18:19:51;2.10;99.90
55560;DHT22;41414;53.250;6.514;2022-11-20T18:22:18;2.10;99.90
55560;DHT22;41414;53.250;6.514;2022-11-20T18:24:44;2.10;99.90
55560;DHT22;41414;53.250;6.514;2022-11-20T18:27:15;2.10;99.90
55560;DHT22;41414;53.250;6.514;2022-11-20T18:29:41;2.10;99.90
55560;DHT22;41414;53.250;6.514;2022-11-20T18:32:07;2.10;99.90
55560;DHT22;41414;53.250;6.514;2022-11-20T18:34:33;2.10;99.90
55560;DHT22;41414;53.250;6.514;2022-11-20T18:36:59;2.10;99.90
55560;DHT22;41414;53.250;6.514;2022-11-20T18:39:25;2.10;99.90
55560;DHT22;41414;53.250;6.514;2022-11-20T18:41:51;2.10;99.90
55560;DHT22;41414;53.250;6.514;2022-11-20T18:44:35;2.10;99.90
55560;DHT22;41414;53.250;6.514;2022-11-20T18:47:22;2.10;99.90
55560;DHT22;41414;53.250;6.514;2022-11-20T18:49:51;2.00;99.90
55560;DHT22;41414;53.250;6.514;2022-11-20T18:52:23;2.10;99.90
55560;DHT22;41414;53.250;6.514;2022-11-20T18:54:50;2.00;99.90
55560;DHT22;41414;53.250;6.514;2022-11-20T18:57:18;2.10;99.90
55560;DHT22;41414;53.250;6.514;2022-11-20T18:59:44;2.10;99.90
55560;DHT22;41414;53.250;6.514;2022-11-20T19:02:11;2.10;99.90
55560;DHT22;41414;53.250;6.514;2022-11-20T19:04:38;2.10;99.90
55560;DHT22;41414;53.250;6.514;2022-11-20T19:07:04;2.10;99.90
55560;DHT22;41414;53.250;6.514;2022-11-20T19:09:30;2.10;99.90
55560;DHT22;41414;53.250;6.514;2022-11-20T19:11:56;2.10;99.90
55560;DHT22;41414;53.250;6.514;2022-11-20T19:14:22;2.10;99.90
55560;DHT22;41414;53.250;6.514;2022-11-20T19:16:48;2.10;99.90
55560;DHT22;41414;53.250;6.514;2022-11-20T19:19:14;2.10;99.90
55560;DHT22;41414;53.250;6.514;2022-11-20T19:21:40;2.10;99.90
55560;DHT22;41414;53.250;6.514;2022-11-20T19:24:07;2.10;99.90
55560;DHT22;41414;53.250;6.514;2022-11-20T19:26:35;2.10;99.90
55560;DHT22;41414;53.250;6.514;2022-11-20T19:29:01;2.00;99.90
55560;DHT22;41414;53.250;6.514;2022-11-20T19:31:27;2.10;99.90
55560;DHT22;41414;53.250;6.514;2022-11-20T19:33:56;2.00;99.90
55560;DHT22;41414;53.250;6.514;2022-11-20T19:36:25;2.10;99.90
55560;DHT22;41414;53.250;6.514;2022-11-20T19:38:52;2.10;99.90
55560;DHT22;41414;53.250;6.514;2022-11-20T19:41:20;2.10;99.90
55560;DHT22;41414;53.250;6.514;2022-11-20T19:43:47;2.00;99.90
55560;DHT22;41414;53.250;6.514;2022-11-20T19:46:16;2.10;99.90
55560;DHT22;41414;53.250;6.514;2022-11-20T19:48:43;2.10;99.90
55560;DHT22;41414;53.250;6.514;2022-11-20T19:51:13;2.10;99.90
55560;DHT22;41414;53.250;6.514;2022-11-20T19:53:39;2.00;99.90
55560;DHT22;41414;53.250;6.514;2022-11-20T19:56:05;2.00;99.90
55560;DHT22;41414;53.250;6.514;2022-11-20T19:58:32;2.00;99.90
55560;DHT22;41414;53.250;6.514;2022-11-20T20:01:05;2.00;99.90
55560;DHT22;41414;53.250;6.514;2022-11-20T20:03:32;2.00;99.90
55560;DHT22;41414;53.250;6.514;2022-11-20T20:06:05;2.00;99.90
55560;DHT22;41414;53.250;6.514;2022-11-20T20:08:32;2.00;99.90
55560;DHT22;41414;53.250;6.514;2022-11-20T20:10:58;2.00;99.90
55560;DHT22;41414;53.250;6.514;2022-11-20T20:13:24;2.00;99.90
55560;DHT22;41414;53.250;6.514;2022-11-20T20:15:51;2.00;99.90
55560;DHT22;41414;53.250;6.514;2022-11-20T20:18:17;1.90;99.90
55560;DHT22;41414;53.250;6.514;2022-11-20T20:20:43;1.90;99.90
55560;DHT22;41414;53.250;6.514;2022-11-20T20:23:09;1.90;99.90
55560;DHT22;41414;53.250;6.514;2022-11-20T20:25:36;1.90;99.90
55560;DHT22;41414;53.250;6.514;2022-11-20T20:28:03;1.90;99.90
55560;DHT22;41414;53.250;6.514;2022-11-20T20:30:29;1.90;99.90
55560;DHT22;41414;53.250;6.514;2022-11-20T20:32:55;1.90;99.90
55560;DHT22;41414;53.250;6.514;2022-11-20T20:35:21;1.90;99.90
55560;DHT22;41414;53.250;6.514;2022-11-20T20:37:47;1.90;99.90
55560;DHT22;41414;53.250;6.514;2022-11-20T20:40:13;1.90;99.90
55560;DHT22;41414;53.250;6.514;2022-11-20T20:42:39;1.90;99.90
55560;DHT22;41414;53.250;6.514;2022-11-20T20:45:05;1.80;99.90
55560;DHT22;41414;53.250;6.514;2022-11-20T20:47:33;1.80;99.90
55560;DHT22;41414;53.250;6.514;2022-11-20T20:50:00;1.90;99.90
55560;DHT22;41414;53.250;6.514;2022-11-20T20:52:26;1.80;99.90
55560;DHT22;41414;53.250;6.514;2022-11-20T20:54:53;1.80;99.90
55560;DHT22;41414;53.250;6.514;2022-11-20T20:57:20;1.80;99.90
55560;DHT22;41414;53.250;6.514;2022-11-20T20:59:48;1.80;99.90
55560;DHT22;41414;53.250;6.514;2022-11-20T21:02:14;1.80;99.90
55560;DHT22;41414;53.250;6.514;2022-11-20T21:04:40;1.80;99.90
55560;DHT22;41414;53.250;6.514;2022-11-20T21:07:05;1.80;99.90
55560;DHT22;41414;53.250;6.514;2022-11-20T21:09:31;1.80;99.90
55560;DHT22;41414;53.250;6.514;2022-11-20T21:11:57;1.80;99.90
55560;DHT22;41414;53.250;6.514;2022-11-20T21:14:23;1.70;99.90
55560;DHT22;41414;53.250;6.514;2022-11-20T21:16:49;1.70;99.90
55560;DHT22;41414;53.250;6.514;2022-11-20T21:19:15;1.70;99.90
55560;DHT22;41414;53.250;6.514;2022-11-20T21:21:41;1.70;99.90
55560;DHT22;41414;53.250;6.514;2022-11-20T21:24:27;1.70;99.90
55560;DHT22;41414;53.250;6.514;2022-11-20T21:26:54;1.70;99.90
55560;DHT22;41414;53.250;6.514;2022-11-20T21:29:21;1.70;99.90
55560;DHT22;41414;53.250;6.514;2022-11-20T21:31:47;1.70;99.90
55560;DHT22;41414;53.250;6.514;2022-11-20T21:34:14;1.70;99.90
55560;DHT22;41414;53.250;6.514;2022-11-20T21:36:40;1.60;99.90
55560;DHT22;41414;53.250;6.514;2022-11-20T21:39:08;1.60;99.90
55560;DHT22;41414;53.250;6.514;2022-11-20T21:41:33;1.60;99.90
55560;DHT22;41414;53.250;6.514;2022-11-20T21:44:00;1.60;99.90
55560;DHT22;41414;53.250;6.514;2022-11-20T21:46:28;1.60;99.90
55560;DHT22;41414;53.250;6.514;2022-11-20T21:48:55;1.60;99.90
55560;DHT22;41414;53.250;6.514;2022-11-20T21:51:23;1.60;99.90
55560;DHT22;41414;53.250;6.514;2022-11-20T21:53:50;1.60;99.90
55560;DHT22;41414;53.250;6.514;2022-11-20T21:56:18;1.60;99.90
55560;DHT22;41414;53.250;6.514;2022-11-20T21:58:45;1.60;99.90
55560;DHT22;41414;53.250;6.514;2022-11-20T22:01:14;1.60;99.90
55560;DHT22;41414;53.250;6.514;2022-11-20T22:03:41;1.60;99.90
55560;DHT22;41414;53.250;6.514;2022-11-20T22:06:08;1.60;99.90
55560;DHT22;41414;53.250;6.514;2022-11-20T22:08:35;1.60;99.90
55560;DHT22;41414;53.250;6.514;2022-11-20T22:11:05;1.60;99.90
55560;DHT22;41414;53.250;6.514;2022-11-20T22:13:32;1.60;99.90
55560;DHT22;41414;53.250;6.514;2022-11-20T22:16:16;1.60;99.90
55560;DHT22;41414;53.250;6.514;2022-11-20T22:18:45;1.60;99.90
55560;DHT22;41414;53.250;6.514;2022-11-20T22:21:12;1.60;99.90
55560;DHT22;41414;53.250;6.514;2022-11-20T22:23:38;1.70;99.90
55560;DHT22;41414;53.250;6.514;2022-11-20T22:26:06;1.70;99.90
55560;DHT22;41414;53.250;6.514;2022-11-20T22:28:33;1.70;99.90
55560;DHT22;41414;53.250;6.514;2022-11-20T22:31:01;1.60;99.90
55560;DHT22;41414;53.250;6.514;2022-11-20T22:33:28;1.60;99.90
55560;DHT22;41414;53.250;6.514;2022-11-20T22:36:04;1.60;99.90
55560;DHT22;41414;53.250;6.514;2022-11-20T22:38:31;1.60;99.90
55560;DHT22;41414;53.250;6.514;2022-11-20T22:41:01;1.60;99.90
55560;DHT22;41414;53.250;6.514;2022-11-20T22:43:27;1.50;99.90
55560;DHT22;41414;53.250;6.514;2022-11-20T22:45:58;1.50;99.90
55560;DHT22;41414;53.250;6.514;2022-11-20T22:48:24;1.50;99.90
55560;DHT22;41414;53.250;6.514;2022-11-20T22:50:50;1.40;99.90
55560;DHT22;41414;53.250;6.514;2022-11-20T22:53:15;1.40;99.90
55560;DHT22;41414;53.250;6.514;2022-11-20T22:55:42;1.40;99.90
55560;DHT22;41414;53.250;6.514;2022-11-20T22:58:08;1.40;99.90
55560;DHT22;41414;53.250;6.514;2022-11-20T23:00:34;1.40;99.90
55560;DHT22;41414;53.250;6.514;2022-11-20T23:03:00;1.40;99.90
55560;DHT22;41414;53.250;6.514;2022-11-20T23:05:25;1.40;99.90
55560;DHT22;41414;53.250;6.514;2022-11-20T23:07:51;1.40;99.90
55560;DHT22;41414;53.250;6.514;2022-11-20T23:10:17;1.30;99.90
55560;DHT22;41414;53.250;6.514;2022-11-20T23:12:43;1.30;99.90
55560;DHT22;41414;53.250;6.514;2022-11-20T23:15:09;1.30;99.90
55560;DHT22;41414;53.250;6.514;2022-11-20T23:17:35;1.30;99.90
55560;DHT22;41414;53.250;6.514;2022-11-20T23:20:01;1.30;99.90
55560;DHT22;41414;53.250;6.514;2022-11-20T23:22:26;1.20;99.90
55560;DHT22;41414;53.250;6.514;2022-11-20T23:24:52;1.20;99.90
55560;DHT22;41414;53.250;6.514;2022-11-20T23:27:18;1.20;99.90
55560;DHT22;41414;53.250;6.514;2022-11-20T23:29:44;1.20;99.90
55560;DHT22;41414;53.250;6.514;2022-11-20T23:32:10;1.20;99.90
55560;DHT22;41414;53.250;6.514;2022-11-20T23:34:35;1.20;99.90
55560;DHT22;41414;53.250;6.514;2022-11-20T23:37:01;1.20;99.90
55560;DHT22;41414;53.250;6.514;2022-11-20T23:39:27;1.10;99.90
55560;DHT22;41414;53.250;6.514;2022-11-20T23:41:53;1.10;99.90
55560;DHT22;41414;53.250;6.514;2022-11-20T23:44:19;1.10;99.90
55560;DHT22;41414;53.250;6.514;2022-11-20T23:46:44;1.10;99.90
55560;DHT22;41414;53.250;6.514;2022-11-20T23:49:10;1.00;99.90
55560;DHT22;41414;53.250;6.514;2022-11-20T23:51:36;1.00;99.90
55560;DHT22;41414;53.250;6.514;2022-11-20T23:54:02;1.00;99.90
55560;DHT22;41414;53.250;6.514;2022-11-20T23:56:27;1.00;99.90
55560;DHT22;41414;53.250;6.514;2022-11-20T23:58:53;1.00;99.90
